Jepson Prairie Reserve, California Weather observations

Data are for 10 minute period ending at time listed.
 Day   Time   Solar   Ave.   Ave.  Ave.  Vector  Max.   Baro.   Total    
  of    of     Rad.   Air    Rel.  Wind   Wind   Wind  Press.  Precip.   
Year   Day            Temp.  Hum.  Speed  Dir.   Gust                    
2014   (PST)  Kw/m2    F      %     mph   deg.    mph    mb.     in.     
-------------------------------------------------------------------------
 209    0:10   0.00   65.4    61   25.6   216    31.6   1010.8    0.00 
 209    0:20   0.00   64.5    64   25.5   220    31.3   1010.5    0.00 
 209    0:30   0.00   64.3    65   25.1   219    31.7   1010.5    0.00 
 209    0:40   0.00   64.7    65   25.5   218    34.8   1010.5    0.00 
 209    0:50   0.00   64.8    65   27.5   217    34.6   1010.5    0.00 
 209    1:00   0.00   64.1    68   24.7   218    30.7   1010.5    0.00 
 209    1:10   0.00   64.1    67   23.0   217    27.7   1010.5    0.00 
 209    1:20   0.00   63.7    70   23.4   216    27.9   1010.5    0.00 
 209    1:30   0.00   62.8    73   20.0   216    25.5   1010.8    0.00 
 209    1:40   0.00   63.0    72   20.4   216    27.6   1010.8    0.00 
 209    1:50   0.00   62.8    73   20.3   215    25.7   1010.8    0.00 
 209    2:00   0.00   62.6    72   19.8   218    27.3   1010.8    0.00 
 209    2:10   0.00   62.6    73   21.5   217    27.5   1010.8    0.00 
 209    2:20   0.00   62.4    74   20.2   216    25.5   1010.8    0.00 
 209    2:30   0.00   62.2    74   20.6   212    26.5   1010.8    0.00 
 209    2:40   0.00   61.8    76   19.9   212    25.5   1010.8    0.00 
 209    2:50   0.00   62.0    74   20.2   214    25.0   1010.8    0.00 
 209    3:00   0.00   61.7    75   20.3   213    25.6   1010.8    0.00 
 209    3:10   0.00   61.6    75   18.9   216    24.6   1010.8    0.00 
 209    3:20   0.00   61.2    76   19.6   216    25.0   1010.8    0.00 
 209    3:30   0.00   61.1    75   18.7   218    23.5   1010.8    0.00 
 209    3:40   0.00   61.1    75   18.2   214    22.6   1010.8    0.00 
 209    3:50   0.00   61.1    76   19.2   216    23.1   1010.8    0.00 
 209    4:00   0.00   60.7    77   19.1   216    25.4   1010.8    0.00 
 209    4:10   0.00   60.6    77   17.9   217    22.5   1011.2    0.00 
 209    4:20   0.00   60.7    77   16.4   219    21.0   1011.5    0.00 
 209    4:30   0.00   60.4    78   17.1   220    20.7   1011.5    0.00 
 209    4:40   0.00   60.5    77   18.5   221    23.3   1011.5    0.00 
 209    4:50   0.00   60.3    78   19.1   220    24.0   1011.5    0.00 
 209    5:00   0.00   60.1    80   18.0   222    22.6   1011.5    0.00 
 209    5:10   0.00   60.0    80   18.2   224    23.8   1011.5    0.00 
 209    5:20   0.01   59.9    80   18.5   223    24.3   1011.9    0.00 
 209    5:30   0.01   59.9    81   20.7   223    25.1   1011.9    0.00 
 209    5:40   0.02   59.8    81   19.3   222    24.5   1011.9    0.00 
 209    5:50   0.02   59.9    82   19.1   224    23.5   1011.9    0.00 
 209    6:00   0.04   59.9    82   19.1   223    24.0   1012.2    0.00 
 209    6:10   0.04   60.2    81   19.4   220    23.5   1012.2    0.00 
 209    6:20   0.07   60.6    80   19.5   219    23.6   1012.2    0.00 
 209    6:30   0.17   61.5    78   20.2   219    25.9   1012.5    0.00 
 209    6:40   0.21   63.2    73   21.0   220    27.7   1012.5    0.00 
 209    6:50   0.20   63.8    71   20.4   221    25.4   1012.9    0.00 
 209    7:00   0.20   64.6    70   18.9   219    23.6   1013.2    0.00 
 209    7:10   0.28   65.1    68   19.0   219    23.9   1013.2    0.00 
 209    7:20   0.26   66.3    66   17.8   222    21.8   1013.2    0.00 
 209    7:30   0.29   66.3    65   19.0   217    24.2   1013.2    0.00 
 209    7:40   0.41   67.2    63   18.6   222    24.4   1013.2    0.00 
 209    7:50   0.34   67.6    62   18.8   219    23.0   1013.5    0.00 
 209    8:00   0.43   68.0    61   19.4   224    23.9   1013.5    0.00 
 209    8:10   0.46   69.5    59   18.8   224    22.7   1013.2    0.00 
 209    8:20   0.43   69.7    58   19.3   225    24.8   1013.5    0.00 
 209    8:30   0.50   70.4    55   19.2   220    23.8   1013.5    0.00 
 209    8:40   0.54   70.9    54   19.8   213    23.9   1013.5    0.00 
 209    8:50   0.52   72.0    52   18.8   220    22.9   1013.5    0.00 
 209    9:00   0.59   73.2    50   17.6   222    22.6   1013.5    0.00 
 209    9:10   0.67   74.5    48   18.3   216    23.0   1013.5    0.00 
 209    9:20   0.68   75.3    48   18.0   212    22.5   1013.5    0.00 
 209    9:30   0.70   75.4    50   16.1   203    20.5   1013.9    0.00 
 209    9:40   0.76   76.1    48   15.0   209    19.0   1013.9    0.00 
 209    9:50   0.80   77.0    45   15.1   219    18.9   1013.5    0.00 
 209   10:00   0.75   77.6    46   16.0   205    19.1   1013.5    0.00 
 209   10:10   0.79   78.3    45   15.5   206    18.5   1013.5    0.00 
 209   10:20   0.74   78.7    43   14.8   206    18.7   1013.5    0.00 
 209   10:30   0.76   80.2    41   15.7   210    20.2   1013.5    0.00 
 209   10:40   0.70   80.0    43   16.0   213    20.8   1013.5    0.00 
 209   10:50   0.75   80.9    42   16.5   211    21.3   1013.2    0.00 
 209   11:00   0.85   82.6    37   17.0   211    21.6   1013.2    0.00 
 209   11:10   0.75   83.5    37   17.1   215    22.8   1013.2    0.00 
 209   11:20   0.75   83.8    36   17.7   208    22.1   1013.2    0.00 
 209   11:30   0.91   85.0    35   17.0   208    22.0   1013.2    0.00 
 209   11:40   0.86   85.8    32   17.3   212    22.4   1013.2    0.00 
 209   11:50   0.86   86.5    31   17.8   209    24.0   1012.9    0.00 
 209   12:00   0.88   86.9    28   19.4   209    24.5   1012.9    0.00 
 209   12:10   0.86   87.9    25   17.2   209    22.5   1012.9    0.00 
 209   12:20   0.84   87.9    26   17.4   208    22.6   1012.9    0.00 
 209   12:30   0.98   89.4    23   18.4   209    24.9   1012.9    0.00 
 209   12:40   0.97   89.9    22   19.8   216    24.1   1012.9    0.00 
 209   12:50   1.06   90.3    23   19.4   215    24.5   1012.9    0.00 
 209   13:00   1.02   90.7    26   18.7   221    23.7   1012.9    0.00 
 209   13:10   0.92   90.3    27   18.2   220    22.9   1012.9    0.00 
 209   13:20   0.93   90.4    26   18.9   217    25.5   1012.9    0.00 
 209   13:30   0.91   90.6    27   18.7   222    24.7   1012.9    0.00 
 209   13:40   0.84   90.7    28   19.1   225    24.7   1012.9    0.00 
 209   13:50   0.81   89.6    28   19.2   217    24.0   1012.9    0.00 
 209   14:00   0.96   91.0    26   19.5   218    26.3   1012.5    0.00 
 209   14:10   0.93   91.1    27   21.4   220    27.2   1012.5    0.00 
 209   14:20   0.85   90.5    27   21.1   222    26.5   1012.5    0.00 
 209   14:30   0.54   89.6    28   21.6   222    27.4   1012.5    0.00 
 209   14:40   0.34   87.3    30   21.9   225    28.0   1012.5    0.00 
 209   14:50   0.59   88.4    29   21.4   228    26.2   1012.2    0.00 
 209   15:00   0.72   89.5    28   22.2   220    27.2   1012.2    0.00 
 209   15:10   0.67   89.2    29   22.6   223    27.8   1012.2    0.00 
 209   15:20   0.58   87.9    32   23.0   217    28.7   1012.2    0.00 
 209   15:30   0.46   85.7    35   22.5   216    26.7   1012.2    0.00 
 209   15:40   0.59   84.6    37   22.5   220    27.4   1012.2    0.00 
 209   15:50   0.52   83.8    37   22.5   213    26.2   1012.2    0.00 
 209   16:00   0.40   84.8    36   20.6   217    27.5   1012.2    0.00 
 209   16:10   0.34   84.4    37   22.0   210    26.8   1012.2    0.00 
 209   16:20   0.23   83.2    38   21.7   208    27.1   1011.9    0.00 
 209   16:30   0.27   82.7    39   21.1   212    27.0   1011.9    0.00 
 209   16:40   0.43   82.2    39   21.6   212    27.3   1011.9    0.00 
 209   16:50   0.35   82.5    38   21.9   211    26.7   1011.9    0.00 
 209   17:00   0.35   81.7    38   22.2   210    29.2   1011.9    0.00 
 209   17:10   0.15   80.5    39   24.0   213    30.0   1011.5    0.00 
 209   17:20   0.23   79.7    40   23.6   214    28.6   1011.5    0.00 
 209   17:30   0.21   79.8    40   23.1   215    29.0   1011.5    0.00 
 209   17:40   0.26   80.1    40   22.9   215    27.9   1011.5    0.00 
 209   17:50   0.23   80.5    40   23.0   215    28.2   1011.5    0.00 
 209   18:00   0.16   80.1    40   21.5   214    27.7   1011.5    0.00 
 209   18:10   0.13   79.2    40   21.4   214    27.7   1011.5    0.00 
 209   18:20   0.14   78.6    41   20.9   214    26.3   1011.5    0.00 
 209   18:30   0.07   77.3    43   21.7   217    28.4   1011.9    0.00 
 209   18:40   0.05   76.5    44   19.8   216    27.5   1011.9    0.00 
 209   18:50   0.06   75.5    46   20.2   220    27.9   1011.9    0.00 
 209   19:00   0.04   75.2    46   19.6   219    25.9   1012.2    0.00 
 209   19:10   0.03   74.5    47   20.6   216    25.8   1012.2    0.00 
 209   19:20   0.01   73.2    49   20.0   214    25.4   1012.2    0.00 
 209   19:30   0.01   72.6    50   20.6   213    25.4   1012.2    0.00 
 209   19:40   0.00   72.0    52   19.5   214    24.8   1012.5    0.00 
 209   19:50   0.00   71.3    53   16.6   217    21.5   1012.9    0.00 
 209   20:00   0.00   70.8    54   17.1   220    22.0   1012.9    0.00 
 209   20:10   0.00   70.6    54   17.5   214    22.8   1012.9    0.00 
 209   20:20   0.00   70.5    54   15.4   212    21.3   1013.2    0.00 
 209   20:30   0.00   70.2    54   14.6   214    21.3   1013.2    0.00 
 209   20:40   0.00   70.0    55   15.1   210    20.3   1013.2    0.00 
 209   20:50   0.00   69.5    56   16.4   205    20.6   1013.5    0.00 
 209   21:00   0.00   68.8    58   16.1   204    18.9   1013.5    0.00 
 209   21:10   0.00   68.6    58   17.1   209    21.7   1013.5    0.00 
 209   21:20   0.00   68.3    58   13.6   208    19.7   1013.5    0.00 
 209   21:30   0.00   67.6    60   13.1   203    15.9   1013.9    0.00 
 209   21:40   0.00   67.6    59   15.2   211    19.6   1013.5    0.00 
 209   21:50   0.00   68.7    55   16.7   219    20.9   1013.5    0.00 
 209   22:00   0.00   69.5    52   18.7   216    22.9   1013.5    0.00 
 209   22:10   0.00   69.4    52   18.7   220    23.4   1013.5    0.00 
 209   22:20   0.00   69.7    51   18.9   215    23.9   1013.5    0.00 
 209   22:30   0.00   70.1    49   19.9   213    25.9   1013.5    0.00 
 209   22:40   0.00   69.5    50   18.5   204    23.3   1013.5    0.00 
 209   22:50   0.00   69.2    50   19.6   206    24.9   1013.5    0.00 
 209   23:00   0.00   69.0    50   18.4   205    23.8   1013.5    0.00 
 209   23:10   0.00   68.2    52   18.9   209    23.7   1013.5    0.00 
 209   23:20   0.00   67.5    55   19.0   211    24.4   1013.5    0.00 
 209   23:30   0.00   67.0    57   21.0   215    25.9   1013.2    0.00 
 209   23:40   0.00   66.7    60   20.4   219    24.3   1013.2    0.00 
 209   23:50   0.00   66.0    63   22.2   222    27.3   1013.2    0.00 
 210    0:00   0.00   65.3    65   22.1   220    26.5   1013.2    0.00 

Return to Jepson Prairie Reserve graphs page.


Western Regional Climate Center,wrcc@dri.edu